Time,TemperatureF,DewpointF,PressureIn,WindDirection,WindDirectionDegrees,WindSpeedMPH,WindSpeedGustMPH,Humidity,HourlyPrecipIn,Conditions,Clouds,dailyrainin,SoftwareType,DateUTC
2013-01-07 20:24:00,44.2,32.0,32.89,ESE,111,3.0,8.0,62,0.00,CLR,CLR,0.01,WeatherDisplay:10.23,2013-01-08 04:24:00,
2013-01-07 20:29:00,44.0,31.4,32.89,West,272,8.0,12.0,61,0.00,CLR,CLR,0.01,WeatherDisplay:10.23,2013-01-08 04:29:00,
2013-01-07 20:34:00,44.0,31.8,32.89,West,277,3.0,12.0,62,0.00,CLR,CLR,0.01,WeatherDisplay:10.23,2013-01-08 04:34:00,
2013-01-07 20:39:00,44.1,31.5,32.89,West,275,6.0,14.0,61,0.00,CLR,CLR,0.01,WeatherDisplay:10.23,2013-01-08 04:39:00,
2013-01-07 20:44:00,44.1,31.5,32.89,West,265,8.0,14.0,61,0.00,CLR,CLR,0.01,WeatherDisplay:10.23,2013-01-08 04:44:00,
2013-01-07 20:54:00,44.1,31.5,32.89,WSW,249,5.0,13.0,61,0.00,CLR,CLR,0.01,WeatherDisplay:10.23,2013-01-08 04:54:00,
2013-01-07 21:04:00,43.6,31.5,32.89,WSW,249,0.0,6.0,62,0.00,CLR,CLR,0.01,WeatherDisplay:10.23,2013-01-08 05:04:00,
2013-01-07 21:14:00,43.8,30.8,32.89,SW,235,5.0,9.0,60,0.00,CLR,CLR,0.01,WeatherDisplay:10.23,2013-01-08 05:14:00,
2013-01-07 21:19:00,43.5,30.9,32.89,SW,219,1.0,8.0,61,0.00,CLR,CLR,0.01,WeatherDisplay:10.23,2013-01-08 05:19:00,
2013-01-07 21:24:00,43.0,30.9,32.89,SSW,207,2.0,5.0,62,0.00,CLR,CLR,0.01,WeatherDisplay:10.23,2013-01-08 05:24:00,
2013-01-07 21:34:00,44.5,31.5,32.89,SW,231,6.0,9.0,60,0.00,CLR,CLR,0.01,WeatherDisplay:10.23,2013-01-08 05:34:00,
2013-01-07 21:44:00,44.4,31.8,32.89,WSW,252,10.0,16.0,61,0.00,CLR,CLR,0.01,WeatherDisplay:10.23,2013-01-08 05:44:00,
2013-01-07 21:54:00,44.0,32.6,32.89,West,260,8.0,16.0,64,0.00,CLR,CLR,0.01,WeatherDisplay:10.23,2013-01-08 05:54:00,
2013-01-07 21:59:00,43.8,32.4,32.89,West,268,7.0,16.0,64,0.00,CLR,CLR,0.01,WeatherDisplay:10.23,2013-01-08 05:59:00,
2013-01-07 22:04:00,43.5,32.6,32.89,West,269,8.0,15.0,65,0.00,CLR,CLR,0.01,WeatherDisplay:10.23,2013-01-08 06:04:00,
2013-01-07 22:14:00,43.5,32.5,32.89,WSW,257,8.0,17.0,65,0.00,CLR,CLR,0.01,WeatherDisplay:10.23,2013-01-08 06:14:00,
2013-01-07 22:24:00,43.0,32.4,32.89,WSW,254,2.0,9.0,66,0.00,CLR,CLR,0.01,WeatherDisplay:10.23,2013-01-08 06:24:00,
2013-01-07 22:34:00,42.6,32.4,32.89,ESE,123,6.0,8.0,67,0.00,CLR,CLR,0.01,WeatherDisplay:10.23,2013-01-08 06:34:00,
2013-01-07 22:44:00,41.8,32.4,32.89,ENE,77,8.0,13.0,69,0.00,CLR,CLR,0.01,WeatherDisplay:10.23,2013-01-08 06:44:00,
2013-01-07 22:49:00,42.3,32.5,32.89,ENE,68,10.0,13.0,68,0.00,CLR,CLR,0.01,WeatherDisplay:10.23,2013-01-08 06:49:00,
2013-01-07 22:59:00,43.2,32.6,32.89,ENE,60,1.0,8.0,66,0.00,CLR,CLR,0.01,WeatherDisplay:10.23,2013-01-08 06:59:00,
2013-01-07 23:04:00,43.0,32.4,32.89,ENE,63,2.0,7.0,66,0.00,CLR,CLR,0.01,WeatherDisplay:10.23,2013-01-08 07:04:00,
2013-01-07 23:14:00,42.7,32.5,32.89,East,83,3.0,3.0,67,0.00,CLR,CLR,0.01,WeatherDisplay:10.23,2013-01-08 07:14:00,
2013-01-07 23:24:00,42.3,32.5,32.89,East,84,2.0,7.0,68,0.00,CLR,CLR,0.01,WeatherDisplay:10.23,2013-01-08 07:24:00,
2013-01-07 23:34:00,42.1,32.3,32.89,NE,44,1.0,3.0,68,0.00,CLR,CLR,0.01,WeatherDisplay:10.23,2013-01-08 07:34:00,
2013-01-07 23:44:00,42.9,32.4,32.89,NNE,23,1.0,6.0,66,0.00,CLR,CLR,0.01,WeatherDisplay:10.23,2013-01-08 07:44:00,
2013-01-07 23:54:00,43.1,32.2,32.89,NNE,24,7.0,10.0,65,0.00,CLR,CLR,0.00,WeatherDisplay:10.23,2013-01-08 07:54:00,
2013-01-07 23:59:00,43.3,32.4,32.89,SE,141,1.0,9.0,65,0.00,CLR,CLR,0.00,WeatherDisplay:10.23,2013-01-08 07:59:00,